sensor_id;sensor_type;location;lat;lon;timestamp;temperature;humidity
46730;DHT22;32476;50.002;11.854;2022-09-30T00:01:36;6.40;99.90
46730;DHT22;32476;50.002;11.854;2022-09-30T00:04:04;6.40;99.90
46730;DHT22;32476;50.002;11.854;2022-09-30T00:06:32;6.40;99.90
46730;DHT22;32476;50.002;11.854;2022-09-30T00:09:01;6.50;99.90
46730;DHT22;32476;50.002;11.854;2022-09-30T00:11:30;6.50;99.90
46730;DHT22;32476;50.002;11.854;2022-09-30T00:13:59;6.50;99.90
46730;DHT22;32476;50.002;11.854;2022-09-30T00:16:31;6.50;99.90
46730;DHT22;32476;50.002;11.854;2022-09-30T00:18:59;6.50;99.90
46730;DHT22;32476;50.002;11.854;2022-09-30T00:21:25;6.50;99.90
46730;DHT22;32476;50.002;11.854;2022-09-30T00:23:55;6.50;99.90
46730;DHT22;32476;50.002;11.854;2022-09-30T00:26:22;6.50;99.90
46730;DHT22;32476;50.002;11.854;2022-09-30T00:28:50;6.50;99.90
46730;DHT22;32476;50.002;11.854;2022-09-30T00:31:19;6.50;99.90
46730;DHT22;32476;50.002;11.854;2022-09-30T00:33:47;6.50;99.90
46730;DHT22;32476;50.002;11.854;2022-09-30T00:36:44;6.50;99.90
46730;DHT22;32476;50.002;11.854;2022-09-30T00:41:51;6.40;99.90
46730;DHT22;32476;50.002;11.854;2022-09-30T00:45:24;6.40;99.90
46730;DHT22;32476;50.002;11.854;2022-09-30T00:47:43;6.40;99.90
46730;DHT22;32476;50.002;11.854;2022-09-30T00:56:12;6.40;99.90
46730;DHT22;32476;50.002;11.854;2022-09-30T00:59:31;6.40;99.90
46730;DHT22;32476;50.002;11.854;2022-09-30T01:01:37;6.40;99.90
46730;DHT22;32476;50.002;11.854;2022-09-30T01:04:12;6.40;99.90
46730;DHT22;32476;50.002;11.854;2022-09-30T01:06:40;6.40;99.90
46730;DHT22;32476;50.002;11.854;2022-09-30T01:09:09;6.40;99.90
46730;DHT22;32476;50.002;11.854;2022-09-30T01:11:35;6.40;99.90
46730;DHT22;32476;50.002;11.854;2022-09-30T01:14:06;6.40;99.90
46730;DHT22;32476;50.002;11.854;2022-09-30T01:17:05;6.40;99.90
46730;DHT22;32476;50.002;11.854;2022-09-30T01:23:24;6.40;99.90
46730;DHT22;32476;50.002;11.854;2022-09-30T01:37:32;6.40;99.90
46730;DHT22;32476;50.002;11.854;2022-09-30T01:40:27;6.40;99.90
46730;DHT22;32476;50.002;11.854;2022-09-30T01:45:34;6.40;99.90
46730;DHT22;32476;50.002;11.854;2022-09-30T01:50:58;6.40;99.90
46730;DHT22;32476;50.002;11.854;2022-09-30T01:53:51;6.40;99.90
46730;DHT22;32476;50.002;11.854;2022-09-30T01:56:38;6.40;99.90
46730;DHT22;32476;50.002;11.854;2022-09-30T01:59:23;6.40;99.90
46730;DHT22;32476;50.002;11.854;2022-09-30T02:02:15;6.40;99.90
46730;DHT22;32476;50.002;11.854;2022-09-30T02:07:35;6.40;99.90
46730;DHT22;32476;50.002;11.854;2022-09-30T02:10:14;6.30;99.90
46730;DHT22;32476;50.002;11.854;2022-09-30T02:12:50;6.40;99.90
46730;DHT22;32476;50.002;11.854;2022-09-30T02:15:22;6.30;99.90
46730;DHT22;32476;50.002;11.854;2022-09-30T02:17:57;6.40;99.90
46730;DHT22;32476;50.002;11.854;2022-09-30T02:20:35;6.30;99.90
46730;DHT22;32476;50.002;11.854;2022-09-30T02:23:28;6.30;99.90
46730;DHT22;32476;50.002;11.854;2022-09-30T02:26:04;6.30;99.90
46730;DHT22;32476;50.002;11.854;2022-09-30T02:28:37;6.30;99.90
46730;DHT22;32476;50.002;11.854;2022-09-30T02:31:09;6.30;99.90
46730;DHT22;32476;50.002;11.854;2022-09-30T02:33:48;6.30;99.90
46730;DHT22;32476;50.002;11.854;2022-09-30T02:39:09;6.30;99.90
46730;DHT22;32476;50.002;11.854;2022-09-30T02:41:47;6.30;99.90
46730;DHT22;32476;50.002;11.854;2022-09-30T02:44:18;6.30;99.90
46730;DHT22;32476;50.002;11.854;2022-09-30T02:47:16;6.30;99.90
46730;DHT22;32476;50.002;11.854;2022-09-30T02:56:22;6.20;99.90
46730;DHT22;32476;50.002;11.854;2022-09-30T02:58:46;6.20;99.90
46730;DHT22;32476;50.002;11.854;2022-09-30T03:01:15;6.10;99.90
46730;DHT22;32476;50.002;11.854;2022-09-30T03:03:55;6.10;99.90
46730;DHT22;32476;50.002;11.854;2022-09-30T03:06:24;6.10;99.90
46730;DHT22;32476;50.002;11.854;2022-09-30T03:08:51;6.10;99.90
46730;DHT22;32476;50.002;11.854;2022-09-30T03:11:23;6.00;99.90
46730;DHT22;32476;50.002;11.854;2022-09-30T03:14:10;6.00;99.90
46730;DHT22;32476;50.002;11.854;2022-09-30T03:17:25;6.00;99.90
46730;DHT22;32476;50.002;11.854;2022-09-30T03:23:05;6.00;99.90
46730;DHT22;32476;50.002;11.854;2022-09-30T03:35:22;5.80;99.90
46730;DHT22;32476;50.002;11.854;2022-09-30T03:40:59;5.60;99.90
46730;DHT22;32476;50.002;11.854;2022-09-30T03:43:34;5.60;99.90
46730;DHT22;32476;50.002;11.854;2022-09-30T03:48:56;5.40;99.90
46730;DHT22;32476;50.002;11.854;2022-09-30T03:51:24;5.30;99.90
46730;DHT22;32476;50.002;11.854;2022-09-30T03:53:51;5.30;99.90
46730;DHT22;32476;50.002;11.854;2022-09-30T03:56:28;5.20;99.90
46730;DHT22;32476;50.002;11.854;2022-09-30T03:58:55;5.20;99.90
46730;DHT22;32476;50.002;11.854;2022-09-30T04:01:23;5.20;99.90
46730;DHT22;32476;50.002;11.854;2022-09-30T04:03:50;5.10;99.90
46730;DHT22;32476;50.002;11.854;2022-09-30T04:06:22;5.10;99.90
46730;DHT22;32476;50.002;11.854;2022-09-30T04:08:50;5.00;99.90
46730;DHT22;32476;50.002;11.854;2022-09-30T04:11:18;5.00;99.90
46730;DHT22;32476;50.002;11.854;2022-09-30T04:13:45;5.00;99.90
46730;DHT22;32476;50.002;11.854;2022-09-30T04:16:12;4.90;99.90
46730;DHT22;32476;50.002;11.854;2022-09-30T04:18:38;4.90;99.90
46730;DHT22;32476;50.002;11.854;2022-09-30T04:21:09;4.80;99.90
46730;DHT22;32476;50.002;11.854;2022-09-30T04:23:39;4.70;99.90
46730;DHT22;32476;50.002;11.854;2022-09-30T04:26:08;4.70;99.90
46730;DHT22;32476;50.002;11.854;2022-09-30T04:28:36;4.60;99.90
46730;DHT22;32476;50.002;11.854;2022-09-30T04:31:04;4.60;99.90
46730;DHT22;32476;50.002;11.854;2022-09-30T04:33:31;4.50;99.90
46730;DHT22;32476;50.002;11.854;2022-09-30T04:35:58;4.50;99.90
46730;DHT22;32476;50.002;11.854;2022-09-30T04:38:26;4.50;99.90
46730;DHT22;32476;50.002;11.854;2022-09-30T04:40:53;4.40;99.90
46730;DHT22;32476;50.002;11.854;2022-09-30T04:43:20;4.40;99.90
46730;DHT22;32476;50.002;11.854;2022-09-30T04:45:52;4.40;99.90
46730;DHT22;32476;50.002;11.854;2022-09-30T04:48:18;4.40;99.90
46730;DHT22;32476;50.002;11.854;2022-09-30T04:50:44;4.40;99.90
46730;DHT22;32476;50.002;11.854;2022-09-30T04:53:12;4.30;99.90
46730;DHT22;32476;50.002;11.854;2022-09-30T04:55:43;4.30;99.90
46730;DHT22;32476;50.002;11.854;2022-09-30T04:58:12;4.20;99.90
46730;DHT22;32476;50.002;11.854;2022-09-30T05:00:38;4.20;99.90
46730;DHT22;32476;50.002;11.854;2022-09-30T05:03:04;4.20;99.90
46730;DHT22;32476;50.002;11.854;2022-09-30T05:05:32;4.10;99.90
46730;DHT22;32476;50.002;11.854;2022-09-30T05:08:02;4.10;99.90
46730;DHT22;32476;50.002;11.854;2022-09-30T05:10:29;4.10;99.90
46730;DHT22;32476;50.002;11.854;2022-09-30T05:12:56;4.00;99.90
46730;DHT22;32476;50.002;11.854;2022-09-30T05:15:23;4.00;99.90
46730;DHT22;32476;50.002;11.854;2022-09-30T05:17:50;4.00;99.90
46730;DHT22;32476;50.002;11.854;2022-09-30T05:20:18;4.00;99.90
46730;DHT22;32476;50.002;11.854;2022-09-30T05:22:44;4.00;99.90
46730;DHT22;32476;50.002;11.854;2022-09-30T05:25:11;4.00;99.90
46730;DHT22;32476;50.002;11.854;2022-09-30T05:27:39;4.00;99.90
46730;DHT22;32476;50.002;11.854;2022-09-30T05:30:05;4.00;99.90
46730;DHT22;32476;50.002;11.854;2022-09-30T05:32:31;3.90;99.90
46730;DHT22;32476;50.002;11.854;2022-09-30T05:34:59;3.90;99.90
46730;DHT22;32476;50.002;11.854;2022-09-30T05:37:28;3.90;99.90
46730;DHT22;32476;50.002;11.854;2022-09-30T05:39:53;3.90;99.90
46730;DHT22;32476;50.002;11.854;2022-09-30T05:42:21;3.90;99.90
46730;DHT22;32476;50.002;11.854;2022-09-30T05:44:48;3.90;99.90
46730;DHT22;32476;50.002;11.854;2022-09-30T05:47:14;4.00;99.90
46730;DHT22;32476;50.002;11.854;2022-09-30T05:49:41;4.10;99.90
46730;DHT22;32476;50.002;11.854;2022-09-30T05:52:07;4.10;99.90
46730;DHT22;32476;50.002;11.854;2022-09-30T05:54:33;4.20;99.90
46730;DHT22;32476;50.002;11.854;2022-09-30T05:57:01;4.20;99.90
46730;DHT22;32476;50.002;11.854;2022-09-30T05:59:27;4.30;99.90
46730;DHT22;32476;50.002;11.854;2022-09-30T06:01:53;4.30;99.90
46730;DHT22;32476;50.002;11.854;2022-09-30T06:04:20;4.40;99.90
46730;DHT22;32476;50.002;11.854;2022-09-30T06:06:47;4.50;99.90
46730;DHT22;32476;50.002;11.854;2022-09-30T06:09:13;4.50;99.90
46730;DHT22;32476;50.002;11.854;2022-09-30T06:11:40;4.60;99.90
46730;DHT22;32476;50.002;11.854;2022-09-30T06:14:07;4.70;99.90
46730;DHT22;32476;50.002;11.854;2022-09-30T06:16:33;4.70;99.90
46730;DHT22;32476;50.002;11.854;2022-09-30T06:19:01;4.80;99.90
46730;DHT22;32476;50.002;11.854;2022-09-30T06:21:26;4.90;99.90
46730;DHT22;32476;50.002;11.854;2022-09-30T06:23:53;4.90;99.90
46730;DHT22;32476;50.002;11.854;2022-09-30T06:26:21;5.00;99.90
46730;DHT22;32476;50.002;11.854;2022-09-30T06:28:47;5.00;99.90
46730;DHT22;32476;50.002;11.854;2022-09-30T06:31:14;5.00;99.90
46730;DHT22;32476;50.002;11.854;2022-09-30T06:33:42;5.00;99.90
46730;DHT22;32476;50.002;11.854;2022-09-30T06:36:08;5.10;99.90
46730;DHT22;32476;50.002;11.854;2022-09-30T06:38:35;5.30;99.90
46730;DHT22;32476;50.002;11.854;2022-09-30T06:41:03;5.50;99.90
46730;DHT22;32476;50.002;11.854;2022-09-30T06:43:30;5.60;99.90
46730;DHT22;32476;50.002;11.854;2022-09-30T06:45:55;5.70;99.90
46730;DHT22;32476;50.002;11.854;2022-09-30T06:48:23;5.80;99.90
46730;DHT22;32476;50.002;11.854;2022-09-30T06:50:49;5.90;99.90
46730;DHT22;32476;50.002;11.854;2022-09-30T06:53:17;6.00;99.90
46730;DHT22;32476;50.002;11.854;2022-09-30T06:55:45;6.10;99.90
46730;DHT22;32476;50.002;11.854;2022-09-30T06:58:14;6.20;99.90
46730;DHT22;32476;50.002;11.854;2022-09-30T07:00:41;6.40;99.90
46730;DHT22;32476;50.002;11.854;2022-09-30T07:03:24;6.50;99.90
46730;DHT22;32476;50.002;11.854;2022-09-30T07:06:00;6.60;99.90
46730;DHT22;32476;50.002;11.854;2022-09-30T07:08:31;6.70;99.90
46730;DHT22;32476;50.002;11.854;2022-09-30T07:10:59;6.80;99.90
46730;DHT22;32476;50.002;11.854;2022-09-30T07:13:26;6.90;99.90
46730;DHT22;32476;50.002;11.854;2022-09-30T07:15:54;7.00;99.90
46730;DHT22;32476;50.002;11.854;2022-09-30T07:18:23;7.10;99.90
46730;DHT22;32476;50.002;11.854;2022-09-30T07:20:50;7.20;99.90
46730;DHT22;32476;50.002;11.854;2022-09-30T07:23:20;7.40;99.90
46730;DHT22;32476;50.002;11.854;2022-09-30T07:25:55;7.50;99.90
46730;DHT22;32476;50.002;11.854;2022-09-30T07:28:24;7.60;99.90
46730;DHT22;32476;50.002;11.854;2022-09-30T07:30:57;7.80;99.90
46730;DHT22;32476;50.002;11.854;2022-09-30T07:33:26;7.90;99.90
46730;DHT22;32476;50.002;11.854;2022-09-30T07:35:58;8.00;99.90
46730;DHT22;32476;50.002;11.854;2022-09-30T07:38:28;8.20;99.90
46730;DHT22;32476;50.002;11.854;2022-09-30T07:41:01;8.30;99.90
46730;DHT22;32476;50.002;11.854;2022-09-30T07:43:34;8.40;99.90
46730;DHT22;32476;50.002;11.854;2022-09-30T07:48:40;8.70;99.90
46730;DHT22;32476;50.002;11.854;2022-09-30T07:53:45;9.10;99.90
46730;DHT22;32476;50.002;11.854;2022-09-30T07:56:13;9.30;99.90
46730;DHT22;32476;50.002;11.854;2022-09-30T07:58:40;9.40;99.90
46730;DHT22;32476;50.002;11.854;2022-09-30T08:01:09;9.50;99.90
46730;DHT22;32476;50.002;11.854;2022-09-30T08:03:38;9.60;99.90
46730;DHT22;32476;50.002;11.854;2022-09-30T08:06:07;9.80;99.90
46730;DHT22;32476;50.002;11.854;2022-09-30T08:08:36;10.00;99.90
46730;DHT22;32476;50.002;11.854;2022-09-30T08:11:04;10.10;99.90
46730;DHT22;32476;50.002;11.854;2022-09-30T08:13:30;10.30;99.90
46730;DHT22;32476;50.002;11.854;2022-09-30T08:15:58;10.30;99.90
46730;DHT22;32476;50.002;11.854;2022-09-30T08:18:24;10.50;99.90
46730;DHT22;32476;50.002;11.854;2022-09-30T08:20:52;10.60;99.90
46730;DHT22;32476;50.002;11.854;2022-09-30T08:23:20;10.70;99.90
46730;DHT22;32476;50.002;11.854;2022-09-30T08:25:46;10.80;99.90
46730;DHT22;32476;50.002;11.854;2022-09-30T08:28:13;11.10;99.90
46730;DHT22;32476;50.002;11.854;2022-09-30T08:30:41;11.20;99.90
46730;DHT22;32476;50.002;11.854;2022-09-30T08:33:06;11.20;99.90
46730;DHT22;32476;50.002;11.854;2022-09-30T08:35:34;11.40;99.90
46730;DHT22;32476;50.002;11.854;2022-09-30T08:38:02;11.60;99.90
46730;DHT22;32476;50.002;11.854;2022-09-30T08:40:31;12.00;99.90
46730;DHT22;32476;50.002;11.854;2022-09-30T08:46:07;12.10;99.90
46730;DHT22;32476;50.002;11.854;2022-09-30T08:51:51;12.50;99.90
46730;DHT22;32476;50.002;11.854;2022-09-30T08:54:21;12.80;99.90
46730;DHT22;32476;50.002;11.854;2022-09-30T08:56:51;13.00;99.90
46730;DHT22;32476;50.002;11.854;2022-09-30T08:59:54;13.20;99.90
46730;DHT22;32476;50.002;11.854;2022-09-30T09:02:57;13.50;99.90
46730;DHT22;32476;50.002;11.854;2022-09-30T09:14:34;14.20;99.90
46730;DHT22;32476;50.002;11.854;2022-09-30T09:20:03;14.30;99.90
46730;DHT22;32476;50.002;11.854;2022-09-30T09:22:33;13.90;99.90
46730;DHT22;32476;50.002;11.854;2022-09-30T09:25:01;13.50;99.90
46730;DHT22;32476;50.002;11.854;2022-09-30T09:27:38;13.50;99.90
46730;DHT22;32476;50.002;11.854;2022-09-30T09:30:14;13.40;99.90
46730;DHT22;32476;50.002;11.854;2022-09-30T09:32:48;13.10;99.90
46730;DHT22;32476;50.002;11.854;2022-09-30T09:35:26;12.80;99.90
46730;DHT22;32476;50.002;11.854;2022-09-30T09:41:32;12.40;99.90
46730;DHT22;32476;50.002;11.854;2022-09-30T09:47:08;12.90;99.90
46730;DHT22;32476;50.002;11.854;2022-09-30T09:49:42;13.90;99.90
46730;DHT22;32476;50.002;11.854;2022-09-30T09:54:46;14.90;99.90
46730;DHT22;32476;50.002;11.854;2022-09-30T09:57:22;14.80;99.90
46730;DHT22;32476;50.002;11.854;2022-09-30T10:08:38;16.10;99.90
46730;DHT22;32476;50.002;11.854;2022-09-30T10:11:16;15.30;99.90
46730;DHT22;32476;50.002;11.854;2022-09-30T10:13:45;15.00;99.90
46730;DHT22;32476;50.002;11.854;2022-09-30T10:16:32;15.20;99.90
46730;DHT22;32476;50.002;11.854;2022-09-30T10:21:47;14.70;99.90
46730;DHT22;32476;50.002;11.854;2022-09-30T10:24:25;14.70;99.90
46730;DHT22;32476;50.002;11.854;2022-09-30T10:26:54;14.70;99.90
46730;DHT22;32476;50.002;11.854;2022-09-30T10:29:33;14.90;99.90
46730;DHT22;32476;50.002;11.854;2022-09-30T10:32:02;15.10;99.90
46730;DHT22;32476;50.002;11.854;2022-09-30T10:37:21;16.30;99.90
46730;DHT22;32476;50.002;11.854;2022-09-30T10:40:05;16.20;99.90
46730;DHT22;32476;50.002;11.854;2022-09-30T10:42:37;16.00;99.90
46730;DHT22;32476;50.002;11.854;2022-09-30T10:45:07;16.30;99.90
46730;DHT22;32476;50.002;11.854;2022-09-30T10:47:49;16.20;99.70
46730;DHT22;32476;50.002;11.854;2022-09-30T10:50:21;16.80;99.90
46730;DHT22;32476;50.002;11.854;2022-09-30T10:57:46;15.90;98.40
46730;DHT22;32476;50.002;11.854;2022-09-30T11:00:19;15.80;99.90
46730;DHT22;32476;50.002;11.854;2022-09-30T11:02:59;15.30;99.90
46730;DHT22;32476;50.002;11.854;2022-09-30T11:05:40;15.40;99.90
46730;DHT22;32476;50.002;11.854;2022-09-30T11:08:42;15.90;99.90
46730;DHT22;32476;50.002;11.854;2022-09-30T11:11:24;15.30;99.90
46730;DHT22;32476;50.002;11.854;2022-09-30T11:14:12;15.10;99.90
46730;DHT22;32476;50.002;11.854;2022-09-30T11:17:06;15.30;99.90
46730;DHT22;32476;50.002;11.854;2022-09-30T11:20:00;16.00;99.90
46730;DHT22;32476;50.002;11.854;2022-09-30T11:22:38;15.80;99.90
46730;DHT22;32476;50.002;11.854;2022-09-30T11:25:27;15.20;99.90
46730;DHT22;32476;50.002;11.854;2022-09-30T11:34:04;14.20;99.90
46730;DHT22;32476;50.002;11.854;2022-09-30T11:57:14;13.60;99.90
46730;DHT22;32476;50.002;11.854;2022-09-30T11:59:58;13.40;99.90
46730;DHT22;32476;50.002;11.854;2022-09-30T12:05:31;13.40;99.90
46730;DHT22;32476;50.002;11.854;2022-09-30T12:08:18;13.50;99.90
46730;DHT22;32476;50.002;11.854;2022-09-30T12:11:06;13.50;99.90
46730;DHT22;32476;50.002;11.854;2022-09-30T12:13:40;13.60;99.90
46730;DHT22;32476;50.002;11.854;2022-09-30T12:16:27;13.50;99.90
46730;DHT22;32476;50.002;11.854;2022-09-30T12:24:36;14.00;99.90
46730;DHT22;32476;50.002;11.854;2022-09-30T12:30:10;14.70;99.90
46730;DHT22;32476;50.002;11.854;2022-09-30T12:38:31;15.30;99.90
46730;DHT22;32476;50.002;11.854;2022-09-30T12:44:06;15.30;99.90
46730;DHT22;32476;50.002;11.854;2022-09-30T12:49:44;14.70;99.90
46730;DHT22;32476;50.002;11.854;2022-09-30T12:52:17;14.40;99.90
46730;DHT22;32476;50.002;11.854;2022-09-30T12:54:54;14.20;99.90
46730;DHT22;32476;50.002;11.854;2022-09-30T12:57:31;14.10;99.90
46730;DHT22;32476;50.002;11.854;2022-09-30T13:00:14;14.00;99.90
46730;DHT22;32476;50.002;11.854;2022-09-30T13:02:54;14.00;99.90
46730;DHT22;32476;50.002;11.854;2022-09-30T13:10:33;14.00;99.90
46730;DHT22;32476;50.002;11.854;2022-09-30T13:13:15;14.00;99.90
46730;DHT22;32476;50.002;11.854;2022-09-30T13:15:46;14.10;99.90
46730;DHT22;32476;50.002;11.854;2022-09-30T13:20:51;14.00;99.90
46730;DHT22;32476;50.002;11.854;2022-09-30T13:23:43;13.80;99.90
46730;DHT22;32476;50.002;11.854;2022-09-30T13:29:25;13.60;99.90
46730;DHT22;32476;50.002;11.854;2022-09-30T13:37:02;13.70;99.90
46730;DHT22;32476;50.002;11.854;2022-09-30T13:44:33;14.10;99.90
46730;DHT22;32476;50.002;11.854;2022-09-30T13:47:20;14.30;99.90
46730;DHT22;32476;50.002;11.854;2022-09-30T13:50:05;14.40;99.90
46730;DHT22;32476;50.002;11.854;2022-09-30T13:52:39;14.30;99.90
46730;DHT22;32476;50.002;11.854;2022-09-30T13:55:26;14.30;99.90
46730;DHT22;32476;50.002;11.854;2022-09-30T13:58:12;14.20;99.90
46730;DHT22;32476;50.002;11.854;2022-09-30T14:00:57;14.00;99.90
46730;DHT22;32476;50.002;11.854;2022-09-30T14:07:30;13.90;99.90
46730;DHT22;32476;50.002;11.854;2022-09-30T14:13:18;13.70;99.90
46730;DHT22;32476;50.002;11.854;2022-09-30T14:19:36;13.30;99.90
46730;DHT22;32476;50.002;11.854;2022-09-30T14:22:26;13.20;99.90
46730;DHT22;32476;50.002;11.854;2022-09-30T14:24:55;13.70;99.90
46730;DHT22;32476;50.002;11.854;2022-09-30T14:27:38;14.10;99.90
46730;DHT22;32476;50.002;11.854;2022-09-30T14:30:21;14.40;99.90
46730;DHT22;32476;50.002;11.854;2022-09-30T14:32:55;14.00;99.90
46730;DHT22;32476;50.002;11.854;2022-09-30T14:35:28;13.80;99.90
46730;DHT22;32476;50.002;11.854;2022-09-30T14:38:02;13.90;99.90
46730;DHT22;32476;50.002;11.854;2022-09-30T14:40:34;13.90;99.90
46730;DHT22;32476;50.002;11.854;2022-09-30T14:43:12;13.90;99.90
46730;DHT22;32476;50.002;11.854;2022-09-30T14:45:44;14.30;99.90
46730;DHT22;32476;50.002;11.854;2022-09-30T14:48:17;14.80;99.90
46730;DHT22;32476;50.002;11.854;2022-09-30T14:51:06;14.50;99.90
46730;DHT22;32476;50.002;11.854;2022-09-30T14:53:37;14.30;99.90
46730;DHT22;32476;50.002;11.854;2022-09-30T14:56:31;14.10;99.90
46730;DHT22;32476;50.002;11.854;2022-09-30T14:59:18;13.90;99.90
46730;DHT22;32476;50.002;11.854;2022-09-30T15:01:50;13.80;99.90
46730;DHT22;32476;50.002;11.854;2022-09-30T15:04:42;13.30;99.90
46730;DHT22;32476;50.002;11.854;2022-09-30T15:07:14;13.10;99.90
46730;DHT22;32476;50.002;11.854;2022-09-30T15:09:42;13.00;99.90
46730;DHT22;32476;50.002;11.854;2022-09-30T15:14:46;13.20;99.90
46730;DHT22;32476;50.002;11.854;2022-09-30T15:17:20;13.20;99.90
46730;DHT22;32476;50.002;11.854;2022-09-30T15:19:49;13.10;99.90
46730;DHT22;32476;50.002;11.854;2022-09-30T15:22:16;13.00;99.90
46730;DHT22;32476;50.002;11.854;2022-09-30T15:24:43;12.90;99.90
46730;DHT22;32476;50.002;11.854;2022-09-30T15:27:21;12.90;99.90
46730;DHT22;32476;50.002;11.854;2022-09-30T15:32:29;13.40;99.90
46730;DHT22;32476;50.002;11.854;2022-09-30T15:35:04;13.50;99.90
46730;DHT22;32476;50.002;11.854;2022-09-30T15:37:32;13.70;99.90
46730;DHT22;32476;50.002;11.854;2022-09-30T15:39:59;13.90;99.90
46730;DHT22;32476;50.002;11.854;2022-09-30T15:42:55;14.00;99.90
46730;DHT22;32476;50.002;11.854;2022-09-30T15:45:38;13.90;99.90
46730;DHT22;32476;50.002;11.854;2022-09-30T15:50:41;13.30;99.90
46730;DHT22;32476;50.002;11.854;2022-09-30T15:53:22;13.10;99.90
46730;DHT22;32476;50.002;11.854;2022-09-30T15:56:24;13.00;99.90
46730;DHT22;32476;50.002;11.854;2022-09-30T15:58:59;13.00;99.90
46730;DHT22;32476;50.002;11.854;2022-09-30T16:01:47;13.10;99.90
46730;DHT22;32476;50.002;11.854;2022-09-30T16:07:07;12.80;99.90
46730;DHT22;32476;50.002;11.854;2022-09-30T16:09:39;12.80;99.90
46730;DHT22;32476;50.002;11.854;2022-09-30T16:14:48;12.50;99.90
46730;DHT22;32476;50.002;11.854;2022-09-30T16:17:29;12.60;99.90
46730;DHT22;32476;50.002;11.854;2022-09-30T16:19:57;12.40;99.90
46730;DHT22;32476;50.002;11.854;2022-09-30T16:25:45;11.90;99.90
46730;DHT22;32476;50.002;11.854;2022-09-30T16:28:14;11.70;99.90
46730;DHT22;32476;50.002;11.854;2022-09-30T16:30:49;11.30;99.90
46730;DHT22;32476;50.002;11.854;2022-09-30T16:33:20;11.00;99.90
46730;DHT22;32476;50.002;11.854;2022-09-30T16:35:46;10.90;99.90
46730;DHT22;32476;50.002;11.854;2022-09-30T16:38:14;10.70;99.90
46730;DHT22;32476;50.002;11.854;2022-09-30T16:40:43;10.50;99.90
46730;DHT22;32476;50.002;11.854;2022-09-30T16:43:10;10.40;99.90
46730;DHT22;32476;50.002;11.854;2022-09-30T16:45:37;10.20;99.90
46730;DHT22;32476;50.002;11.854;2022-09-30T16:48:16;10.00;99.90
46730;DHT22;32476;50.002;11.854;2022-09-30T16:50:51;9.90;99.90
46730;DHT22;32476;50.002;11.854;2022-09-30T16:53:23;9.80;99.90
46730;DHT22;32476;50.002;11.854;2022-09-30T16:55:49;9.80;99.90
46730;DHT22;32476;50.002;11.854;2022-09-30T16:58:15;9.60;99.90
46730;DHT22;32476;50.002;11.854;2022-09-30T17:00:43;9.50;99.90
46730;DHT22;32476;50.002;11.854;2022-09-30T17:03:15;9.30;99.90
46730;DHT22;32476;50.002;11.854;2022-09-30T17:05:44;9.20;99.90
46730;DHT22;32476;50.002;11.854;2022-09-30T17:08:12;9.10;99.90
46730;DHT22;32476;50.002;11.854;2022-09-30T17:10:41;9.00;99.90
46730;DHT22;32476;50.002;11.854;2022-09-30T17:13:10;8.80;99.90
46730;DHT22;32476;50.002;11.854;2022-09-30T17:15:35;8.80;99.90
46730;DHT22;32476;50.002;11.854;2022-09-30T17:18:06;8.70;99.90
46730;DHT22;32476;50.002;11.854;2022-09-30T17:20:36;8.60;99.90
46730;DHT22;32476;50.002;11.854;2022-09-30T17:23:02;8.50;99.90
46730;DHT22;32476;50.002;11.854;2022-09-30T17:25:28;8.40;99.90
46730;DHT22;32476;50.002;11.854;2022-09-30T17:27:56;8.30;99.90
46730;DHT22;32476;50.002;11.854;2022-09-30T17:30:23;8.10;99.90
46730;DHT22;32476;50.002;11.854;2022-09-30T17:32:51;8.10;99.90
46730;DHT22;32476;50.002;11.854;2022-09-30T17:35:19;8.00;99.90
46730;DHT22;32476;50.002;11.854;2022-09-30T17:37:45;7.90;99.90
46730;DHT22;32476;50.002;11.854;2022-09-30T17:40:12;7.80;99.90
46730;DHT22;32476;50.002;11.854;2022-09-30T17:42:59;7.80;99.90
46730;DHT22;32476;50.002;11.854;2022-09-30T17:45:37;7.60;99.90
46730;DHT22;32476;50.002;11.854;2022-09-30T17:48:09;7.60;99.90
46730;DHT22;32476;50.002;11.854;2022-09-30T17:50:44;7.60;99.90
46730;DHT22;32476;50.002;11.854;2022-09-30T17:53:14;7.50;99.90
46730;DHT22;32476;50.002;11.854;2022-09-30T17:55:45;7.50;99.90
46730;DHT22;32476;50.002;11.854;2022-09-30T17:58:15;7.40;99.90
46730;DHT22;32476;50.002;11.854;2022-09-30T18:00:42;7.30;99.90
46730;DHT22;32476;50.002;11.854;2022-09-30T18:03:09;7.20;99.90
46730;DHT22;32476;50.002;11.854;2022-09-30T18:05:36;7.00;99.90
46730;DHT22;32476;50.002;11.854;2022-09-30T18:08:02;6.90;99.90
46730;DHT22;32476;50.002;11.854;2022-09-30T18:10:30;6.90;99.90
46730;DHT22;32476;50.002;11.854;2022-09-30T18:12:57;6.80;99.90
46730;DHT22;32476;50.002;11.854;2022-09-30T18:15:24;6.80;99.90
46730;DHT22;32476;50.002;11.854;2022-09-30T18:17:51;6.70;99.90
46730;DHT22;32476;50.002;11.854;2022-09-30T18:20:19;6.70;99.90
46730;DHT22;32476;50.002;11.854;2022-09-30T18:22:45;6.70;99.90
46730;DHT22;32476;50.002;11.854;2022-09-30T18:25:11;6.60;99.90
46730;DHT22;32476;50.002;11.854;2022-09-30T18:27:57;6.50;99.90
46730;DHT22;32476;50.002;11.854;2022-09-30T18:30:24;6.50;99.90
46730;DHT22;32476;50.002;11.854;2022-09-30T18:32:53;6.40;99.90
46730;DHT22;32476;50.002;11.854;2022-09-30T18:35:21;6.40;99.90
46730;DHT22;32476;50.002;11.854;2022-09-30T18:37:49;6.40;99.90
46730;DHT22;32476;50.002;11.854;2022-09-30T18:40:23;6.30;99.90
46730;DHT22;32476;50.002;11.854;2022-09-30T18:42:55;6.20;99.90
46730;DHT22;32476;50.002;11.854;2022-09-30T18:45:29;6.30;99.90
46730;DHT22;32476;50.002;11.854;2022-09-30T18:47:58;6.30;99.90
46730;DHT22;32476;50.002;11.854;2022-09-30T18:50:28;6.30;99.90
46730;DHT22;32476;50.002;11.854;2022-09-30T18:52:55;6.20;99.90
46730;DHT22;32476;50.002;11.854;2022-09-30T18:55:22;6.10;99.90
46730;DHT22;32476;50.002;11.854;2022-09-30T18:57:54;6.00;99.90
46730;DHT22;32476;50.002;11.854;2022-09-30T19:00:20;5.90;99.90
46730;DHT22;32476;50.002;11.854;2022-09-30T19:02:46;5.90;99.90
46730;DHT22;32476;50.002;11.854;2022-09-30T19:05:14;5.90;99.90
46730;DHT22;32476;50.002;11.854;2022-09-30T19:07:41;5.90;99.90
46730;DHT22;32476;50.002;11.854;2022-09-30T19:10:08;5.80;99.90
46730;DHT22;32476;50.002;11.854;2022-09-30T19:12:39;5.70;99.90
46730;DHT22;32476;50.002;11.854;2022-09-30T19:15:11;5.60;99.90
46730;DHT22;32476;50.002;11.854;2022-09-30T19:17:43;5.60;99.90
46730;DHT22;32476;50.002;11.854;2022-09-30T19:20:10;5.50;99.90
46730;DHT22;32476;50.002;11.854;2022-09-30T19:22:37;5.40;99.90
46730;DHT22;32476;50.002;11.854;2022-09-30T19:25:06;5.40;99.90
46730;DHT22;32476;50.002;11.854;2022-09-30T19:27:35;5.40;99.90
46730;DHT22;32476;50.002;11.854;2022-09-30T19:30:05;5.40;99.90